Time,TemperatureF,DewpointF,PressureIn,WindDirection,WindDirectionDegrees,WindSpeedMPH,WindSpeedGustMPH,Humidity,HourlyPrecipIn,Conditions,Clouds,dailyrainin,SoftwareType,DateUTC
2013-07-21 00:01:00,65.7,65.1,29.99,NW,311,0.0,0.0,98,0.00,,,0.00,meteohub,2013-07-21 04:01:00,
2013-07-21 00:02:00,65.7,65.1,29.99,North,0,0.0,0.0,98,0.00,,,0.00,meteohub,2013-07-21 04:02:00,
2013-07-21 00:07:00,65.7,65.1,29.99,NW,310,0.0,0.0,98,0.00,,,0.00,meteohub,2013-07-21 04:07:00,
2013-07-21 00:12:00,65.5,64.9,29.99,NW,311,0.0,0.0,98,0.00,,,0.00,meteohub,2013-07-21 04:12:00,
2013-07-21 00:17:00,65.5,64.9,29.99,NW,311,0.0,0.0,98,0.00,,,0.00,meteohub,2013-07-21 04:17:00,
2013-07-21 00:22:00,65.1,64.6,29.99,NW,310,0.0,0.0,98,0.00,,,0.00,meteohub,2013-07-21 04:22:00,
2013-07-21 00:27:00,65.1,64.6,29.99,NW,310,0.0,0.0,98,0.00,,,0.00,meteohub,2013-07-21 04:27:00,
2013-07-21 00:32:00,65.1,64.6,29.99,NW,310,0.0,0.0,98,0.00,,,0.00,meteohub,2013-07-21 04:32:00,
2013-07-21 00:37:00,64.9,64.4,29.99,NW,310,0.0,0.0,98,0.00,,,0.00,meteohub,2013-07-21 04:37:00,
2013-07-21 00:42:00,64.9,64.4,29.99,NW,310,0.0,0.0,98,0.00,,,0.00,meteohub,2013-07-21 04:42:00,
2013-07-21 00:47:00,64.9,64.4,29.99,NW,310,0.0,0.0,98,0.00,,,0.00,meteohub,2013-07-21 04:47:00,
2013-07-21 00:52:00,64.9,64.4,29.98,NW,310,0.0,0.0,98,0.00,,,0.00,meteohub,2013-07-21 04:52:00,
2013-07-21 00:57:00,64.8,64.2,29.98,NW,311,0.0,0.0,98,0.00,,,0.00,meteohub,2013-07-21 04:57:00,
2013-07-21 01:02:00,64.8,64.2,29.98,NW,310,0.0,0.0,98,0.00,,,0.00,meteohub,2013-07-21 05:02:00,
2013-07-21 01:07:00,64.8,64.4,29.98,NW,310,0.0,0.0,99,0.00,,,0.00,meteohub,2013-07-21 05:07:00,
2013-07-21 01:12:00,64.8,64.4,29.98,NW,310,0.0,0.0,99,0.00,,,0.00,meteohub,2013-07-21 05:12:00,
2013-07-21 01:17:00,64.9,64.6,29.98,NW,308,0.0,0.0,99,0.00,,,0.00,meteohub,2013-07-21 05:17:00,
2013-07-21 01:22:00,64.9,64.6,29.98,NW,307,0.0,0.0,99,0.00,,,0.00,meteohub,2013-07-21 05:22:00,
2013-07-21 01:27:00,64.9,64.6,29.98,NW,308,0.0,0.0,99,0.00,,,0.00,meteohub,2013-07-21 05:27:00,
2013-07-21 01:32:00,64.9,64.6,29.98,NW,308,0.0,0.0,99,0.00,,,0.00,meteohub,2013-07-21 05:32:00,
2013-07-21 01:37:00,64.8,64.4,29.98,NW,307,0.0,0.0,99,0.00,,,0.00,meteohub,2013-07-21 05:37:00,
2013-07-21 01:42:00,64.6,64.0,29.98,NW,308,0.0,0.0,98,0.00,,,0.00,meteohub,2013-07-21 05:42:00,
2013-07-21 01:47:00,64.6,64.0,29.98,NW,308,0.0,0.0,98,0.00,,,0.00,meteohub,2013-07-21 05:47:00,
2013-07-21 01:52:00,64.6,64.2,29.98,NW,308,0.0,0.0,99,0.00,,,0.00,meteohub,2013-07-21 05:52:00,
2013-07-21 01:57:00,64.8,64.4,29.97,WNW,284,0.0,0.0,99,0.00,,,0.00,meteohub,2013-07-21 05:57:00,
2013-07-21 02:02:00,64.9,64.6,29.97,WNW,284,0.0,0.0,99,0.00,,,0.00,meteohub,2013-07-21 06:02:00,
2013-07-21 02:12:00,64.9,64.6,29.97,WSW,254,0.0,0.0,99,0.00,,,0.00,meteohub,2013-07-21 06:12:00,
2013-07-21 02:17:00,65.1,64.8,29.97,WSW,255,0.0,0.0,99,0.00,,,0.00,meteohub,2013-07-21 06:17:00,
2013-07-21 02:22:00,65.1,64.8,29.97,WSW,254,0.0,0.0,99,0.00,,,0.00,meteohub,2013-07-21 06:22:00,
2013-07-21 02:27:00,65.1,64.8,29.98,WSW,255,0.0,0.0,99,0.00,,,0.00,meteohub,2013-07-21 06:27:00,
2013-07-21 02:32:00,64.9,64.6,29.97,WSW,254,0.0,0.0,99,0.00,,,0.00,meteohub,2013-07-21 06:32:00,
2013-07-21 02:37:00,64.9,64.6,29.97,WSW,255,0.0,0.0,99,0.00,,,0.00,meteohub,2013-07-21 06:37:00,
2013-07-21 02:42:00,65.1,64.8,29.97,WSW,255,0.0,0.0,99,0.00,,,0.00,meteohub,2013-07-21 06:42:00,
2013-07-21 02:47:00,65.1,64.8,29.97,WSW,254,0.0,0.0,99,0.00,,,0.00,meteohub,2013-07-21 06:47:00,
2013-07-21 02:52:00,65.1,64.8,29.97,WSW,254,0.0,0.0,99,0.00,,,0.00,meteohub,2013-07-21 06:52:00,
2013-07-21 02:57:00,64.9,64.6,29.97,WSW,254,0.0,0.0,99,0.00,,,0.00,meteohub,2013-07-21 06:57:00,
2013-07-21 03:02:00,65.1,64.8,29.97,WSW,254,0.0,0.0,99,0.00,,,0.00,meteohub,2013-07-21 07:02:00,
2013-07-21 03:07:00,65.1,64.8,29.96,WSW,255,0.0,1.0,99,0.00,,,0.00,meteohub,2013-07-21 07:07:00,
2013-07-21 03:12:00,65.1,64.8,29.96,WSW,255,0.0,1.0,99,0.00,,,0.00,meteohub,2013-07-21 07:12:00,
2013-07-21 03:17:00,65.1,64.8,29.96,WSW,254,0.0,1.0,99,0.00,,,0.00,meteohub,2013-07-21 07:17:00,
2013-07-21 03:22:00,64.9,64.6,29.96,WSW,254,0.0,1.0,99,0.00,,,0.00,meteohub,2013-07-21 07:22:00,
2013-07-21 03:27:00,65.1,64.8,29.96,WSW,245,0.0,0.0,99,0.00,,,0.00,meteohub,2013-07-21 07:27:00,
2013-07-21 03:32:00,65.1,64.8,29.95,WSW,245,0.0,0.0,99,0.00,,,0.00,meteohub,2013-07-21 07:32:00,
2013-07-21 03:37:00,64.9,64.6,29.95,WSW,245,0.0,0.0,99,0.00,,,0.00,meteohub,2013-07-21 07:37:00,
2013-07-21 03:42:00,64.8,64.4,29.95,WSW,245,0.0,0.0,99,0.00,,,0.00,meteohub,2013-07-21 07:42:00,
2013-07-21 03:47:00,64.6,64.2,29.95,WSW,245,0.0,0.0,99,0.00,,,0.00,meteohub,2013-07-21 07:47:00,
2013-07-21 03:52:00,64.8,64.4,29.95,WSW,245,0.0,1.0,99,0.00,,,0.00,meteohub,2013-07-21 07:52:00,
2013-07-21 03:57:00,64.4,64.0,29.95,WSW,246,0.0,1.0,99,0.00,,,0.00,meteohub,2013-07-21 07:57:00,
2013-07-21 04:02:00,64.2,63.9,29.95,WSW,244,0.0,1.0,99,0.00,,,0.00,meteohub,2013-07-21 08:02:00,
2013-07-21 04:07:00,64.2,63.9,29.95,WSW,245,0.0,0.0,99,0.00,,,0.00,meteohub,2013-07-21 08:07:00,
2013-07-21 04:12:00,64.2,63.9,29.95,WSW,245,0.0,0.0,99,0.00,,,0.00,meteohub,2013-07-21 08:12:00,
2013-07-21 04:17:00,64.2,63.9,29.95,WSW,245,0.0,0.0,99,0.00,,,0.00,meteohub,2013-07-21 08:17:00,
2013-07-21 04:22:00,64.4,64.0,29.95,WSW,245,0.0,0.0,99,0.00,,,0.00,meteohub,2013-07-21 08:22:00,
2013-07-21 04:27:00,64.4,64.0,29.95,WSW,245,0.0,0.0,99,0.00,,,0.00,meteohub,2013-07-21 08:27:00,
2013-07-21 04:32:00,64.4,64.0,29.95,WSW,246,0.0,0.0,99,0.00,,,0.00,meteohub,2013-07-21 08:32:00,
2013-07-21 04:37:00,64.4,64.0,29.95,WSW,245,0.0,0.0,99,0.00,,,0.00,meteohub,2013-07-21 08:37:00,
2013-07-21 04:42:00,64.4,64.0,29.95,WSW,245,0.0,0.0,99,0.00,,,0.00,meteohub,2013-07-21 08:42:00,
2013-07-21 04:47:00,64.6,64.2,29.95,WSW,245,0.0,0.0,99,0.00,,,0.00,meteohub,2013-07-21 08:47:00,
2013-07-21 04:52:00,64.8,64.4,29.95,WSW,245,0.0,0.0,99,0.00,,,0.00,meteohub,2013-07-21 08:52:00,
2013-07-21 04:57:00,64.8,64.4,29.95,WSW,245,0.0,0.0,99,0.00,,,0.00,meteohub,2013-07-21 08:57:00,
2013-07-21 05:02:00,64.9,64.6,29.94,WSW,245,0.0,0.0,99,0.00,,,0.00,meteohub,2013-07-21 09:02:00,
2013-07-21 05:07:00,64.9,64.6,29.94,WSW,246,0.0,0.0,99,0.00,,,0.00,meteohub,2013-07-21 09:07:00,
2013-07-21 05:12:00,64.9,64.6,29.94,WSW,244,0.0,0.0,99,0.00,,,0.00,meteohub,2013-07-21 09:12:00,
2013-07-21 05:17:00,64.8,64.4,29.94,WSW,246,0.0,0.0,99,0.00,,,0.00,meteohub,2013-07-21 09:17:00,
2013-07-21 05:22:00,64.6,64.2,29.94,WSW,245,0.0,0.0,99,0.00,,,0.00,meteohub,2013-07-21 09:22:00,
2013-07-21 05:27:00,64.6,64.2,29.95,WSW,246,0.0,0.0,99,0.00,,,0.00,meteohub,2013-07-21 09:27:00,
2013-07-21 05:32:00,64.6,64.2,29.95,WSW,245,0.0,0.0,99,0.00,,,0.00,meteohub,2013-07-21 09:32:00,
2013-07-21 05:37:00,64.8,64.4,29.95,WSW,245,0.0,0.0,99,0.00,,,0.00,meteohub,2013-07-21 09:37:00,
2013-07-21 05:42:00,64.8,64.4,29.95,WSW,245,0.0,0.0,99,0.00,,,0.00,meteohub,2013-07-21 09:42:00,
2013-07-21 05:47:00,64.9,64.6,29.95,WSW,245,0.0,0.0,99,0.00,,,0.00,meteohub,2013-07-21 09:47:00,
2013-07-21 05:52:00,64.9,64.6,29.95,WSW,245,0.0,0.0,99,0.00,,,0.00,meteohub,2013-07-21 09:52:00,
2013-07-21 05:57:00,64.9,64.6,29.95,WSW,245,0.0,0.0,99,0.00,,,0.00,meteohub,2013-07-21 09:57:00,
2013-07-21 06:02:00,64.8,64.4,29.95,WSW,245,0.0,0.0,99,0.00,,,0.00,meteohub,2013-07-21 10:02:00,
2013-07-21 06:07:00,64.6,64.2,29.95,WSW,246,0.0,0.0,99,0.00,,,0.00,meteohub,2013-07-21 10:07:00,
2013-07-21 06:12:00,64.8,64.4,29.95,WSW,246,0.0,0.0,99,0.00,,,0.00,meteohub,2013-07-21 10:12:00,
2013-07-21 06:17:00,64.6,64.2,29.95,WSW,246,0.0,0.0,99,0.00,,,0.00,meteohub,2013-07-21 10:17:00,
2013-07-21 06:21:00,64.6,64.2,29.95,WSW,246,0.0,0.0,99,0.00,,,0.00,meteohub,2013-07-21 10:21:00,
2013-07-21 06:27:00,64.6,64.2,29.96,WSW,245,0.0,0.0,99,0.00,,,0.00,meteohub,2013-07-21 10:27:00,
2013-07-21 06:32:00,64.6,64.2,29.96,WSW,246,0.0,0.0,99,0.00,,,0.00,meteohub,2013-07-21 10:32:00,
2013-07-21 06:37:00,64.4,64.0,29.96,WSW,245,0.0,0.0,99,0.00,,,0.00,meteohub,2013-07-21 10:37:00,
2013-07-21 06:42:00,64.2,63.9,29.96,WSW,244,0.0,0.0,99,0.00,,,0.00,meteohub,2013-07-21 10:42:00,
2013-07-21 06:47:00,64.2,63.9,29.96,WSW,246,0.0,0.0,99,0.00,,,0.00,meteohub,2013-07-21 10:47:00,
2013-07-21 06:52:00,64.2,63.9,29.96,WSW,245,0.0,0.0,99,0.00,,,0.00,meteohub,2013-07-21 10:52:00,
2013-07-21 06:57:00,64.2,63.9,29.96,WSW,245,0.0,0.0,99,0.00,,,0.00,meteohub,2013-07-21 10:57:00,
2013-07-21 07:02:00,64.2,63.9,29.97,WSW,245,0.0,0.0,99,0.00,,,0.00,meteohub,2013-07-21 11:02:00,
2013-07-21 07:07:00,64.2,63.9,29.97,WSW,245,0.0,0.0,99,0.00,,,0.00,meteohub,2013-07-21 11:07:00,
2013-07-21 07:12:00,64.8,64.4,29.97,WSW,245,0.0,0.0,99,0.00,,,0.00,meteohub,2013-07-21 11:12:00,
2013-07-21 07:17:00,64.9,64.6,29.97,WSW,244,0.0,0.0,99,0.00,,,0.00,meteohub,2013-07-21 11:17:00,
2013-07-21 07:22:00,65.1,64.8,29.97,WSW,245,0.0,0.0,99,0.00,,,0.00,meteohub,2013-07-21 11:22:00,
2013-07-21 07:27:00,64.9,64.6,29.97,WSW,248,0.0,0.0,99,0.00,,,0.00,meteohub,2013-07-21 11:27:00,
2013-07-21 07:32:00,65.3,64.9,29.97,WSW,248,0.0,0.0,99,0.00,,,0.00,meteohub,2013-07-21 11:32:00,
2013-07-21 07:37:00,65.5,65.1,29.97,WSW,248,0.0,0.0,99,0.00,,,0.00,meteohub,2013-07-21 11:37:00,
2013-07-21 07:42:00,65.8,65.5,29.97,WSW,248,0.0,0.0,99,0.00,,,0.00,meteohub,2013-07-21 11:42:00,
2013-07-21 07:47:00,67.1,66.7,29.97,WSW,248,0.0,0.0,99,0.00,,,0.00,meteohub,2013-07-21 11:47:00,
2013-07-21 07:52:00,67.6,67.3,29.97,WSW,248,0.0,0.0,99,0.00,,,0.00,meteohub,2013-07-21 11:52:00,
2013-07-21 07:57:00,68.4,68.0,29.98,WSW,246,0.0,0.0,99,0.00,,,0.00,meteohub,2013-07-21 11:57:00,
2013-07-21 08:02:00,68.4,67.8,29.98,WSW,248,0.0,0.0,98,0.00,,,0.00,meteohub,2013-07-21 12:02:00,
2013-07-21 08:07:00,69.1,68.5,29.98,WSW,245,0.0,0.0,98,0.00,,,0.00,meteohub,2013-07-21 12:07:00,
2013-07-21 08:12:00,69.4,68.9,29.98,WSW,246,0.0,0.0,98,0.00,,,0.00,meteohub,2013-07-21 12:12:00,
2013-07-21 08:17:00,69.8,69.3,29.98,WSW,248,0.0,0.0,98,0.00,,,0.00,meteohub,2013-07-21 12:17:00,
2013-07-21 08:22:00,70.0,69.4,29.99,WSW,248,0.0,0.0,98,0.00,,,0.00,meteohub,2013-07-21 12:22:00,
2013-07-21 08:27:00,70.5,69.3,29.99,NE,37,1.0,0.0,96,0.00,,,0.00,meteohub,2013-07-21 12:27:00,
2013-07-21 08:32:00,70.0,68.7,29.99,NE,40,0.0,1.0,96,0.00,,,0.00,meteohub,2013-07-21 12:32:00,
2013-07-21 08:37:00,70.2,68.9,29.99,ENE,71,0.0,1.0,96,0.00,,,0.00,meteohub,2013-07-21 12:37:00,
2013-07-21 08:42:00,70.3,68.9,29.99,NE,37,0.0,1.0,95,0.00,,,0.00,meteohub,2013-07-21 12:42:00,
2013-07-21 08:47:00,70.5,69.1,29.99,NE,37,0.0,2.0,95,0.00,,,0.00,meteohub,2013-07-21 12:47:00,
2013-07-21 08:52:00,71.1,68.9,29.99,NE,37,0.0,2.0,93,0.00,,,0.00,meteohub,2013-07-21 12:52:00,
2013-07-21 08:57:00,71.2,69.1,29.99,NE,37,0.0,1.0,93,0.00,,,0.00,meteohub,2013-07-21 12:57:00,
2013-07-21 09:02:00,71.4,68.7,29.99,NE,34,0.0,1.0,91,0.00,,,0.00,meteohub,2013-07-21 13:02:00,
2013-07-21 09:07:00,71.4,68.7,29.99,NNE,32,3.0,3.0,91,0.00,,,0.00,meteohub,2013-07-21 13:07:00,
2013-07-21 09:12:00,71.6,69.1,29.99,NNW,328,0.0,4.0,92,0.00,,,0.00,meteohub,2013-07-21 13:12:00,
2013-07-21 09:17:00,72.1,69.6,29.99,West,266,0.0,4.0,92,0.00,,,0.00,meteohub,2013-07-21 13:17:00,
2013-07-21 09:22:00,73.4,70.5,29.99,West,266,0.0,4.0,91,0.00,,,0.00,meteohub,2013-07-21 13:22:00,
2013-07-21 09:27:00,74.1,70.0,29.99,SSW,210,0.0,1.0,87,0.00,,,0.00,meteohub,2013-07-21 13:27:00,
2013-07-21 09:32:00,73.9,69.8,29.99,SSW,210,0.0,1.0,87,0.00,,,0.00,meteohub,2013-07-21 13:32:00,
2013-07-21 09:37:00,74.3,70.5,29.99,SSW,210,0.0,1.0,88,0.00,,,0.00,meteohub,2013-07-21 13:37:00,
2013-07-21 09:42:00,75.0,69.8,29.99,NE,56,0.0,1.0,84,0.00,,,0.00,meteohub,2013-07-21 13:42:00,
2013-07-21 09:47:00,74.7,69.1,30.00,NNE,26,0.0,2.0,83,0.00,,,0.00,meteohub,2013-07-21 13:47:00,
2013-07-21 09:52:00,73.9,68.4,30.00,NNE,12,0.0,4.0,83,0.00,,,0.00,meteohub,2013-07-21 13:52:00,
2013-07-21 09:57:00,73.8,68.9,29.99,NNE,20,0.0,4.0,85,0.00,,,0.00,meteohub,2013-07-21 13:57:00,
2013-07-21 10:02:00,73.8,68.0,29.99,NE,44,0.0,4.0,82,0.00,,,0.00,meteohub,2013-07-21 14:02:00,
2013-07-21 10:07:00,73.8,68.5,29.99,NNE,30,0.0,2.0,84,0.00,,,0.00,meteohub,2013-07-21 14:07:00,
2013-07-21 10:12:00,74.1,68.5,29.99,North,350,0.0,2.0,83,0.00,,,0.00,meteohub,2013-07-21 14:12:00,
2013-07-21 10:17:00,74.1,68.0,29.99,NE,41,0.0,2.0,81,0.00,,,0.00,meteohub,2013-07-21 14:17:00,
2013-07-21 10:22:00,74.5,69.3,29.99,NE,41,0.0,2.0,84,0.00,,,0.00,meteohub,2013-07-21 14:22:00,
2013-07-21 10:27:00,74.8,68.5,29.99,North,4,1.0,2.0,81,0.00,,,0.00,meteohub,2013-07-21 14:27:00,
2013-07-21 10:32:00,74.7,68.7,29.99,ENE,62,0.0,4.0,82,0.00,,,0.00,meteohub,2013-07-21 14:32:00,
2013-07-21 10:37:00,74.3,68.7,30.00,ENE,57,2.0,4.0,83,0.00,,,0.00,meteohub,2013-07-21 14:37:00,
2013-07-21 10:42:00,74.1,68.9,30.00,NE,50,2.0,5.0,84,0.00,,,0.00,meteohub,2013-07-21 14:42:00,
2013-07-21 10:47:00,74.1,68.5,30.00,ENE,73,0.0,5.0,83,0.00,,,0.00,meteohub,2013-07-21 14:47:00,
2013-07-21 10:52:00,75.0,69.1,30.00,NE,43,0.0,5.0,82,0.00,,,0.00,meteohub,2013-07-21 14:52:00,
2013-07-21 10:57:00,75.9,68.2,30.00,SE,134,1.0,5.0,77,0.00,,,0.00,meteohub,2013-07-21 14:57:00,
2013-07-21 11:02:00,77.4,70.0,30.00,ENE,65,0.0,3.0,78,0.00,,,0.00,meteohub,2013-07-21 15:02:00,
2013-07-21 11:07:00,77.5,68.5,30.00,NE,42,4.0,4.0,74,0.00,,,0.00,meteohub,2013-07-21 15:07:00,
2013-07-21 11:12:00,76.5,68.0,30.00,NNE,13,4.0,6.0,75,0.00,,,0.00,meteohub,2013-07-21 15:12:00,
2013-07-21 11:17:00,76.5,68.0,30.00,ENE,71,2.0,6.0,75,0.00,,,0.00,meteohub,2013-07-21 15:17:00,
2013-07-21 11:22:00,76.5,69.4,30.00,NNE,30,3.0,6.0,79,0.00,,,0.00,meteohub,2013-07-21 15:22:00,
2013-07-21 11:27:00,76.6,66.9,30.00,NNE,24,2.0,5.0,72,0.00,,,0.00,meteohub,2013-07-21 15:27:00,
2013-07-21 11:32:00,76.6,67.3,30.00,NE,43,2.0,7.0,73,0.00,,,0.00,meteohub,2013-07-21 15:32:00,
2013-07-21 11:37:00,77.0,65.7,30.00,ESE,110,0.0,7.0,68,0.00,,,0.00,meteohub,2013-07-21 15:37:00,
2013-07-21 11:42:00,77.2,66.6,30.00,NNE,27,1.0,7.0,70,0.00,,,0.00,meteohub,2013-07-21 15:42:00,
2013-07-21 11:46:00,76.8,67.1,30.00,NNW,333,0.0,7.0,72,0.00,,,0.00,meteohub,2013-07-21 15:46:00,
2013-07-21 11:52:00,76.6,66.9,30.00,ESE,108,0.0,7.0,72,0.00,,,0.00,meteohub,2013-07-21 15:52:00,
2013-07-21 11:56:00,76.8,67.5,30.00,SSE,165,0.0,5.0,73,0.00,,,0.00,meteohub,2013-07-21 15:56:00,
2013-07-21 12:02:00,76.8,69.1,30.00,SW,219,0.0,2.0,77,0.00,,,0.00,meteohub,2013-07-21 16:02:00,
2013-07-21 12:07:00,76.5,69.8,30.00,SW,217,0.0,2.0,80,0.00,,,0.00,meteohub,2013-07-21 16:07:00,
2013-07-21 12:12:00,76.5,70.2,30.00,SE,131,0.0,2.0,81,0.00,,,0.00,meteohub,2013-07-21 16:12:00,
2013-07-21 12:17:00,77.0,71.1,30.00,NNW,335,0.0,2.0,82,0.00,,,0.00,meteohub,2013-07-21 16:17:00,
2013-07-21 12:22:00,78.1,70.7,30.00,SSE,167,2.0,4.0,78,0.00,,,0.00,meteohub,2013-07-21 16:22:00,
2013-07-21 12:27:00,78.3,70.0,29.99,ESE,110,0.0,4.0,76,0.00,,,0.00,meteohub,2013-07-21 16:27:00,
2013-07-21 12:32:00,77.9,70.2,30.00,SW,233,0.0,4.0,77,0.00,,,0.00,meteohub,2013-07-21 16:32:00,
2013-07-21 12:37:00,77.4,70.3,30.00,West,279,0.0,3.0,79,0.00,,,0.00,meteohub,2013-07-21 16:37:00,
2013-07-21 12:42:00,76.8,70.2,30.00,WNW,290,0.0,3.0,80,0.00,,,0.00,meteohub,2013-07-21 16:42:00,
2013-07-21 12:47:00,76.3,70.0,29.99,WNW,291,1.0,4.0,81,0.00,,,0.00,meteohub,2013-07-21 16:47:00,
2013-07-21 12:52:00,75.7,70.2,29.99,SSW,210,4.0,4.0,83,0.00,,,0.00,meteohub,2013-07-21 16:52:00,
2013-07-21 12:57:00,75.6,70.3,29.99,West,278,0.0,5.0,84,0.00,,,0.00,meteohub,2013-07-21 16:57:00,
2013-07-21 13:02:00,75.0,70.2,29.99,WNW,293,0.0,5.0,85,0.00,,,0.00,meteohub,2013-07-21 17:02:00,
2013-07-21 13:07:00,74.1,70.0,29.99,West,269,0.0,7.0,87,0.03,,,0.03,meteohub,2013-07-21 17:07:00,
2013-07-21 13:12:00,73.2,69.4,29.99,SSE,148,0.0,7.0,88,0.05,,,0.05,meteohub,2013-07-21 17:12:00,
2013-07-21 13:17:00,72.7,69.3,29.99,WSW,249,0.0,6.0,89,0.05,,,0.05,meteohub,2013-07-21 17:17:00,
2013-07-21 13:22:00,72.5,69.4,29.99,West,264,0.0,3.0,90,0.05,,,0.05,meteohub,2013-07-21 17:22:00,
2013-07-21 13:27:00,72.1,69.4,29.99,SSW,195,0.0,2.0,91,0.05,,,0.05,meteohub,2013-07-21 17:27:00,
2013-07-21 13:32:00,72.3,69.6,29.99,NW,305,0.0,3.0,91,0.05,,,0.05,meteohub,2013-07-21 17:32:00,
2013-07-21 13:37:00,72.1,68.4,29.99,WSW,256,3.0,3.0,88,0.05,,,0.05,meteohub,2013-07-21 17:37:00,
2013-07-21 13:42:00,72.0,68.2,29.99,West,270,0.0,6.0,88,0.05,,,0.05,meteohub,2013-07-21 17:42:00,
2013-07-21 13:47:00,72.0,68.2,29.98,NNW,332,1.0,6.0,88,0.05,,,0.05,meteohub,2013-07-21 17:47:00,
2013-07-21 13:52:00,72.0,68.5,29.97,NNW,336,0.0,4.0,89,0.05,,,0.05,meteohub,2013-07-21 17:52:00,
2013-07-21 13:57:00,72.9,68.0,29.97,South,174,3.0,3.0,85,0.05,,,0.05,meteohub,2013-07-21 17:57:00,
2013-07-21 14:02:00,73.9,68.7,29.96,ESE,115,1.0,5.0,84,0.04,,,0.05,meteohub,2013-07-21 18:02:00,
2013-07-21 14:07:00,75.4,69.4,29.96,South,169,2.0,5.0,82,0.01,,,0.05,meteohub,2013-07-21 18:07:00,
2013-07-21 14:12:00,76.3,69.3,29.96,South,186,1.0,5.0,79,0.00,,,0.05,meteohub,2013-07-21 18:12:00,
2013-07-21 14:17:00,77.0,69.6,29.96,East,101,0.0,4.0,78,0.00,,,0.05,meteohub,2013-07-21 18:17:00,
2013-07-21 14:22:00,77.4,70.7,29.96,ENE,67,1.0,4.0,80,0.00,,,0.05,meteohub,2013-07-21 18:22:00,
2013-07-21 14:27:00,77.5,69.4,29.96,East,92,1.0,4.0,76,0.00,,,0.05,meteohub,2013-07-21 18:27:00,
2013-07-21 14:32:00,77.7,69.6,29.96,South,169,0.0,3.0,76,0.00,,,0.05,meteohub,2013-07-21 18:32:00,
2013-07-21 14:37:00,78.3,69.3,29.95,WSW,253,0.0,4.0,74,0.00,,,0.05,meteohub,2013-07-21 18:37:00,
2013-07-21 14:42:00,78.3,68.9,29.95,SSW,193,1.0,4.0,73,0.00,,,0.05,meteohub,2013-07-21 18:42:00,
2013-07-21 14:47:00,77.9,69.3,29.95,SSW,195,0.0,4.0,75,0.00,,,0.05,meteohub,2013-07-21 18:47:00,
2013-07-21 14:52:00,77.5,69.4,29.95,South,190,0.0,3.0,76,0.00,,,0.05,meteohub,2013-07-21 18:52:00,
2013-07-21 14:57:00,77.4,68.4,29.95,SW,229,0.0,2.0,74,0.00,,,0.05,meteohub,2013-07-21 18:57:00,
2013-07-21 15:02:00,77.4,68.9,29.95,SW,236,0.0,6.0,75,0.00,,,0.05,meteohub,2013-07-21 19:02:00,
2013-07-21 15:07:00,78.1,69.1,29.95,SW,231,5.0,6.0,74,0.00,,,0.05,meteohub,2013-07-21 19:07:00,
2013-07-21 15:12:00,78.3,68.9,29.95,SSW,195,0.0,6.0,73,0.00,,,0.05,meteohub,2013-07-21 19:12:00,
2013-07-21 15:17:00,77.7,69.1,29.95,WNW,301,0.0,5.0,75,0.00,,,0.05,meteohub,2013-07-21 19:17:00,
2013-07-21 15:22:00,76.8,69.4,29.95,NNE,33,3.0,5.0,78,0.00,,,0.05,meteohub,2013-07-21 19:22:00,
2013-07-21 15:27:00,75.4,69.4,29.95,NE,44,0.0,9.0,82,0.00,,,0.05,meteohub,2013-07-21 19:27:00,
2013-07-21 15:32:00,74.8,69.3,29.94,NNE,20,0.0,9.0,83,0.00,,,0.05,meteohub,2013-07-21 19:32:00,
2013-07-21 15:37:00,74.7,68.4,29.94,East,90,0.0,9.0,81,0.00,,,0.05,meteohub,2013-07-21 19:37:00,
2013-07-21 15:42:00,74.8,68.9,29.94,SSW,211,0.0,4.0,82,0.00,,,0.05,meteohub,2013-07-21 19:42:00,
2013-07-21 15:47:00,75.2,69.6,29.94,West,259,0.0,4.0,83,0.00,,,0.05,meteohub,2013-07-21 19:47:00,
2013-07-21 15:52:00,75.6,70.0,29.94,WNW,290,0.0,4.0,83,0.00,,,0.05,meteohub,2013-07-21 19:52:00,
2013-07-21 15:57:00,75.6,69.6,29.94,South,174,1.0,2.0,82,0.00,,,0.05,meteohub,2013-07-21 19:57:00,
2013-07-21 16:02:00,75.6,69.3,29.94,West,278,1.0,3.0,81,0.00,,,0.05,meteohub,2013-07-21 20:02:00,
2013-07-21 16:07:00,75.0,69.4,29.94,West,271,0.0,3.0,83,0.00,,,0.05,meteohub,2013-07-21 20:07:00,
2013-07-21 16:12:00,74.7,69.8,29.95,WSW,255,0.0,3.0,85,0.00,,,0.05,meteohub,2013-07-21 20:12:00,
2013-07-21 16:17:00,74.1,70.3,29.95,WSW,255,0.0,2.0,88,0.03,,,0.08,meteohub,2013-07-21 20:17:00,
2013-07-21 16:22:00,73.6,70.2,29.94,WSW,256,0.0,1.0,89,0.15,,,0.20,meteohub,2013-07-21 20:22:00,
2013-07-21 16:27:00,72.9,69.8,29.94,West,278,0.0,1.0,90,0.39,,,0.44,meteohub,2013-07-21 20:27:00,
2013-07-21 16:32:00,71.8,68.7,29.95,West,281,0.0,1.0,90,0.42,,,0.47,meteohub,2013-07-21 20:32:00,
2013-07-21 16:37:00,70.7,67.6,29.94,SE,145,0.0,1.0,90,0.67,,,0.72,meteohub,2013-07-21 20:37:00,
2013-07-21 16:42:00,70.3,67.8,29.94,NNE,33,0.0,1.0,92,0.71,,,0.75,meteohub,2013-07-21 20:42:00,
2013-07-21 16:47:00,70.2,68.0,29.94,NE,46,0.0,3.0,93,0.71,,,0.76,meteohub,2013-07-21 20:47:00,
2013-07-21 16:52:00,70.2,68.4,29.94,SE,129,3.0,3.0,94,0.75,,,0.80,meteohub,2013-07-21 20:52:00,
2013-07-21 16:57:00,70.3,68.9,29.94,NNE,13,4.0,6.0,95,0.75,,,0.80,meteohub,2013-07-21 20:57:00,
2013-07-21 17:02:00,70.3,68.9,29.94,NE,46,0.0,6.0,95,0.75,,,0.80,meteohub,2013-07-21 21:02:00,
2013-07-21 17:07:00,70.3,68.9,29.94,NE,40,0.0,6.0,95,0.75,,,0.80,meteohub,2013-07-21 21:07:00,
2013-07-21 17:12:00,70.3,68.5,29.93,East,86,2.0,5.0,94,0.74,,,0.80,meteohub,2013-07-21 21:12:00,
2013-07-21 17:16:00,70.3,68.2,29.93,ESE,108,2.0,5.0,93,0.67,,,0.80,meteohub,2013-07-21 21:16:00,
2013-07-21 17:22:00,70.2,68.4,29.94,ENE,58,2.0,7.0,94,0.51,,,0.80,meteohub,2013-07-21 21:22:00,
2013-07-21 17:27:00,70.0,67.8,29.94,NE,50,1.0,7.0,93,0.35,,,0.80,meteohub,2013-07-21 21:27:00,
2013-07-21 17:32:00,69.8,67.6,29.94,NE,53,1.0,7.0,93,0.25,,,0.80,meteohub,2013-07-21 21:32:00,
2013-07-21 17:37:00,69.6,67.5,29.94,NNE,13,1.0,6.0,93,0.05,,,0.80,meteohub,2013-07-21 21:37:00,
2013-07-21 17:42:00,69.4,67.6,29.94,NNW,341,2.0,5.0,94,0.05,,,0.81,meteohub,2013-07-21 21:42:00,
2013-07-21 17:47:00,69.1,67.3,29.94,NNE,12,1.0,4.0,94,0.05,,,0.82,meteohub,2013-07-21 21:47:00,
2013-07-21 17:52:00,68.9,67.1,29.95,NNE,20,0.0,4.0,94,0.02,,,0.82,meteohub,2013-07-21 21:52:00,
2013-07-21 17:57:00,68.9,67.5,29.95,ENE,58,1.0,4.0,95,0.02,,,0.82,meteohub,2013-07-21 21:57:00,
2013-07-21 18:02:00,68.7,67.3,29.95,NNE,13,0.0,7.0,95,0.02,,,0.82,meteohub,2013-07-21 22:02:00,
2013-07-21 18:07:00,68.7,67.5,29.95,NNE,33,1.0,8.0,96,0.03,,,0.83,meteohub,2013-07-21 22:07:00,
2013-07-21 18:12:00,68.5,67.3,29.95,ENE,74,1.0,8.0,96,0.08,,,0.88,meteohub,2013-07-21 22:12:00,
2013-07-21 18:17:00,68.5,67.3,29.95,North,358,0.0,4.0,96,0.11,,,0.91,meteohub,2013-07-21 22:17:00,
2013-07-21 18:22:00,68.4,66.9,29.95,NNE,33,7.0,7.0,95,0.13,,,0.93,meteohub,2013-07-21 22:22:00,
2013-07-21 18:27:00,68.0,66.6,29.95,NE,44,1.0,7.0,95,0.16,,,0.96,meteohub,2013-07-21 22:27:00,
2013-07-21 18:32:00,67.8,66.6,29.95,NNE,18,4.0,8.0,96,0.18,,,0.98,meteohub,2013-07-21 22:32:00,
2013-07-21 18:37:00,67.8,66.6,29.95,NNE,27,4.0,11.0,96,0.19,,,0.99,meteohub,2013-07-21 22:37:00,
2013-07-21 18:42:00,67.8,66.6,29.95,NE,51,6.0,11.0,96,0.20,,,1.01,meteohub,2013-07-21 22:42:00,
2013-07-21 18:47:00,67.6,66.2,29.95,NE,47,8.0,10.0,95,0.20,,,1.02,meteohub,2013-07-21 22:47:00,
2013-07-21 18:52:00,67.6,66.2,29.95,NNE,16,4.0,10.0,95,0.20,,,1.02,meteohub,2013-07-21 22:52:00,
2013-07-21 18:57:00,67.5,66.0,29.96,NE,44,4.0,10.0,95,0.20,,,1.02,meteohub,2013-07-21 22:57:00,
2013-07-21 19:02:00,67.5,66.0,29.96,ENE,61,1.0,10.0,95,0.20,,,1.02,meteohub,2013-07-21 23:02:00,
2013-07-21 19:07:00,67.3,65.8,29.96,SE,129,0.0,7.0,95,0.17,,,1.02,meteohub,2013-07-21 23:07:00,
2013-07-21 19:12:00,67.3,65.8,29.96,NNE,32,0.0,6.0,95,0.14,,,1.02,meteohub,2013-07-21 23:12:00,
2013-07-21 19:17:00,67.3,65.8,29.96,SE,130,0.0,3.0,95,0.11,,,1.03,meteohub,2013-07-21 23:17:00,
2013-07-21 19:22:00,67.3,65.8,29.96,SE,124,1.0,3.0,95,0.10,,,1.04,meteohub,2013-07-21 23:22:00,
2013-07-21 19:27:00,67.3,65.8,29.96,ESE,114,0.0,3.0,95,0.11,,,1.07,meteohub,2013-07-21 23:27:00,
2013-07-21 19:32:00,67.3,65.8,29.96,ESE,115,0.0,2.0,95,0.10,,,1.08,meteohub,2013-07-21 23:32:00,
2013-07-21 19:37:00,67.1,65.7,29.96,ESE,114,0.0,2.0,95,0.11,,,1.11,meteohub,2013-07-21 23:37:00,
2013-07-21 19:42:00,67.1,65.7,29.96,ESE,114,0.0,1.0,95,0.13,,,1.14,meteohub,2013-07-21 23:42:00,
2013-07-21 19:47:00,66.9,65.5,29.96,ESE,114,0.0,0.0,95,0.13,,,1.15,meteohub,2013-07-21 23:47:00,
2013-07-21 19:52:00,66.9,65.7,29.96,SE,124,0.0,0.0,96,0.15,,,1.17,meteohub,2013-07-21 23:52:00,
2013-07-21 19:57:00,66.7,65.5,29.96,SE,142,0.0,1.0,96,0.15,,,1.17,meteohub,2013-07-21 23:57:00,
2013-07-21 20:02:00,66.7,65.5,29.96,SE,141,0.0,1.0,96,0.16,,,1.18,meteohub,2013-07-22 00:02:00,
2013-07-21 20:07:00,66.7,65.5,29.96,SE,141,0.0,1.0,96,0.17,,,0.01,meteohub,2013-07-22 00:07:00,
2013-07-21 20:12:00,66.6,65.3,29.96,SSW,198,0.0,0.0,96,0.17,,,0.02,meteohub,2013-07-22 00:12:00,
2013-07-21 20:17:00,66.6,65.3,29.96,SSW,208,0.0,1.0,96,0.18,,,0.03,meteohub,2013-07-22 00:17:00,
2013-07-21 20:22:00,66.4,65.1,29.96,SSW,208,0.0,2.0,96,0.16,,,0.03,meteohub,2013-07-22 00:22:00,
2013-07-21 20:27:00,66.4,65.1,29.96,SSW,208,0.0,2.0,96,0.15,,,0.04,meteohub,2013-07-22 00:27:00,
2013-07-21 20:32:00,66.4,65.1,29.96,SSW,208,0.0,1.0,96,0.15,,,0.06,meteohub,2013-07-22 00:32:00,
2013-07-21 20:37:00,66.2,65.3,29.96,SSW,208,0.0,0.0,97,0.13,,,0.07,meteohub,2013-07-22 00:37:00,
2013-07-21 20:42:00,66.2,65.3,29.96,SSW,208,0.0,0.0,97,0.13,,,0.09,meteohub,2013-07-22 00:42:00,
2013-07-21 20:47:00,66.2,65.3,29.96,SSW,209,0.0,0.0,97,0.12,,,0.10,meteohub,2013-07-22 00:47:00,
2013-07-21 20:52:00,66.0,65.1,29.96,SSW,209,0.0,0.0,97,0.11,,,0.10,meteohub,2013-07-22 00:52:00,
2013-07-21 20:57:00,66.0,65.1,29.96,SSW,209,0.0,0.0,97,0.11,,,0.11,meteohub,2013-07-22 00:57:00,
2013-07-21 21:02:00,66.0,65.1,29.96,SSW,209,0.0,0.0,97,0.11,,,0.12,meteohub,2013-07-22 01:02:00,
2013-07-21 21:07:00,66.0,65.1,29.96,SSW,209,0.0,0.0,97,0.11,,,0.12,meteohub,2013-07-22 01:07:00,
2013-07-21 21:12:00,66.0,65.1,29.96,SSW,208,0.0,0.0,97,0.10,,,0.12,meteohub,2013-07-22 01:12:00,
2013-07-21 21:17:00,65.8,64.9,29.96,SSW,208,0.0,0.0,97,0.09,,,0.12,meteohub,2013-07-22 01:17:00,
2013-07-21 21:22:00,65.8,64.9,29.96,SSW,208,0.0,0.0,97,0.08,,,0.12,meteohub,2013-07-22 01:22:00,
2013-07-21 21:27:00,65.8,64.9,29.96,SSW,209,0.0,0.0,97,0.07,,,0.12,meteohub,2013-07-22 01:27:00,
2013-07-21 21:32:00,65.8,64.9,29.97,SSW,208,0.0,0.0,97,0.06,,,0.12,meteohub,2013-07-22 01:32:00,
2013-07-21 21:37:00,65.8,64.9,29.97,SSW,208,0.0,0.0,97,0.04,,,0.12,meteohub,2013-07-22 01:37:00,
2013-07-21 21:42:00,65.8,64.9,29.97,SSW,208,0.0,0.0,97,0.03,,,0.12,meteohub,2013-07-22 01:42:00,
2013-07-21 21:47:00,65.8,64.9,29.98,SSW,208,0.0,0.0,97,0.02,,,0.12,meteohub,2013-07-22 01:47:00,
2013-07-21 21:52:00,65.8,64.9,29.98,SSW,208,0.0,0.0,97,0.01,,,0.12,meteohub,2013-07-22 01:52:00,
2013-07-21 21:58:00,65.8,65.3,29.98,SSW,209,0.0,0.0,98,0.01,,,0.12,meteohub,2013-07-22 01:58:00,
2013-07-21 22:03:00,65.8,65.3,29.98,SSW,208,0.0,0.0,98,0.00,,,0.12,meteohub,2013-07-22 02:03:00,
2013-07-21 22:08:00,65.8,64.9,29.98,SSW,208,0.0,0.0,97,0.00,,,0.12,meteohub,2013-07-22 02:08:00,
2013-07-21 22:13:00,65.7,64.8,29.98,SSW,208,0.0,0.0,97,0.00,,,0.12,meteohub,2013-07-22 02:13:00,
2013-07-21 22:18:00,65.7,65.1,29.98,SSW,208,0.0,0.0,98,0.01,,,0.13,meteohub,2013-07-22 02:18:00,
2013-07-21 22:23:00,65.7,65.1,29.99,SSW,209,0.0,0.0,98,0.01,,,0.13,meteohub,2013-07-22 02:23:00,
2013-07-21 22:28:00,65.7,65.1,29.99,SSW,208,0.0,0.0,98,0.01,,,0.13,meteohub,2013-07-22 02:28:00,
2013-07-21 22:33:00,65.7,65.1,29.99,SSW,209,0.0,0.0,98,0.01,,,0.13,meteohub,2013-07-22 02:33:00,
2013-07-21 22:38:00,65.8,65.3,29.99,SSW,209,0.0,0.0,98,0.01,,,0.13,meteohub,2013-07-22 02:38:00,
2013-07-21 22:43:00,65.7,65.1,29.99,SSW,208,0.0,0.0,98,0.01,,,0.13,meteohub,2013-07-22 02:43:00,
2013-07-21 22:48:00,65.8,65.3,29.99,SSW,208,0.0,0.0,98,0.01,,,0.13,meteohub,2013-07-22 02:48:00,
2013-07-21 22:53:00,65.8,65.3,29.99,SSW,209,0.0,0.0,98,0.01,,,0.13,meteohub,2013-07-22 02:53:00,
2013-07-21 22:58:00,65.8,65.3,29.99,SSW,209,0.0,0.0,98,0.01,,,0.13,meteohub,2013-07-22 02:58:00,
2013-07-21 23:03:00,65.8,65.3,29.99,SSW,208,0.0,0.0,98,0.01,,,0.13,meteohub,2013-07-22 03:03:00,
2013-07-21 23:08:00,65.8,65.3,29.99,SSW,208,0.0,0.0,98,0.01,,,0.13,meteohub,2013-07-22 03:08:00,
2013-07-21 23:13:00,65.8,65.3,29.99,SSW,209,0.0,0.0,98,0.01,,,0.13,meteohub,2013-07-22 03:13:00,
2013-07-21 23:18:00,65.8,65.3,29.99,SSW,208,0.0,0.0,98,0.00,,,0.13,meteohub,2013-07-22 03:18:00,
2013-07-21 23:23:00,65.7,65.1,29.99,SSW,209,0.0,0.0,98,0.00,,,0.13,meteohub,2013-07-22 03:23:00,
2013-07-21 23:28:00,65.7,65.1,30.00,SSW,208,0.0,0.0,98,0.00,,,0.13,meteohub,2013-07-22 03:28:00,
2013-07-21 23:33:00,65.7,65.1,29.99,SSW,209,0.0,0.0,98,0.00,,,0.13,meteohub,2013-07-22 03:33:00,
2013-07-21 23:38:00,65.7,65.1,30.00,SSW,208,0.0,0.0,98,0.00,,,0.13,meteohub,2013-07-22 03:38:00,
2013-07-21 23:43:00,65.5,64.9,30.00,SSW,208,0.0,0.0,98,0.00,,,0.13,meteohub,2013-07-22 03:43:00,
2013-07-21 23:48:00,65.5,64.9,30.00,SSW,209,0.0,0.0,98,0.00,,,0.13,meteohub,2013-07-22 03:48:00,
2013-07-21 23:53:00,65.5,64.9,30.00,SSW,208,0.0,0.0,98,0.00,,,0.13,meteohub,2013-07-22 03:53:00,
2013-07-21 23:58:00,65.5,64.9,30.00,SSW,209,0.0,0.0,98,0.00,,,0.13,meteohub,2013-07-22 03:58:00,